createdAt,value
2018-07-14T00:01:26.409Z,17.40
2018-07-14T00:03:57.967Z,17.40
2018-07-14T00:06:28.610Z,17.30
2018-07-14T00:08:58.926Z,17.30
2018-07-14T00:11:29.513Z,17.20
2018-07-14T00:13:59.809Z,17.10
2018-07-14T00:16:30.052Z,17.10
2018-07-14T00:19:00.379Z,17.10
2018-07-14T00:21:30.745Z,17.10
2018-07-14T00:24:01.023Z,17.00
2018-07-14T00:26:31.370Z,17.00
2018-07-14T00:29:01.660Z,17.00
2018-07-14T00:31:31.997Z,17.00
2018-07-14T00:34:02.530Z,17.10
2018-07-14T00:36:32.976Z,17.10
2018-07-14T00:39:03.492Z,17.10
2018-07-14T00:41:33.934Z,17.10
2018-07-14T00:44:04.455Z,17.10
2018-07-14T00:46:35.247Z,17.10
2018-07-14T00:49:06.109Z,17.10
2018-07-14T00:51:36.918Z,17.10
2018-07-14T00:54:07.415Z,17.00
2018-07-14T00:56:37.910Z,17.00
2018-07-14T00:59:08.443Z,17.00
2018-07-14T01:01:38.875Z,16.90
2018-07-14T01:04:09.527Z,16.90
2018-07-14T01:06:40.093Z,16.90
2018-07-14T01:09:10.734Z,17.00
2018-07-14T01:11:41.180Z,17.00
2018-07-14T01:14:11.631Z,17.00
2018-07-14T01:16:42.037Z,17.00
2018-07-14T01:19:12.327Z,17.10
2018-07-14T01:21:42.739Z,17.10
2018-07-14T01:24:12.978Z,17.20
2018-07-14T01:26:45.193Z,17.20
2018-07-14T01:29:15.764Z,17.20
2018-07-14T01:31:47.684Z,17.20
2018-07-14T01:34:17.922Z,17.20
2018-07-14T01:36:55.267Z,17.20
2018-07-14T01:39:25.963Z,17.10
2018-07-14T01:41:56.624Z,17.10
2018-07-14T01:44:27.031Z,17.20
2018-07-14T01:46:57.574Z,17.20
2018-07-14T01:49:28.343Z,17.20
2018-07-14T01:51:59.029Z,17.10
2018-07-14T01:54:29.379Z,17.10
2018-07-14T01:57:00.176Z,17.10
2018-07-14T01:59:30.517Z,17.10
2018-07-14T02:02:00.982Z,17.20
2018-07-14T02:04:32.959Z,17.10
2018-07-14T02:07:06.746Z,17.20
2018-07-14T02:09:37.912Z,17.20
2018-07-14T02:12:10.076Z,17.20
2018-07-14T02:14:40.320Z,17.10
2018-07-14T02:17:10.574Z,17.10
2018-07-14T02:19:41.216Z,17.10
2018-07-14T02:23:14.717Z,17.00
2018-07-14T02:25:45.131Z,17.00
2018-07-14T02:28:15.410Z,16.90
2018-07-14T02:30:45.710Z,16.90
2018-07-14T02:33:15.986Z,16.90
2018-07-14T02:35:46.332Z,16.80
2018-07-14T02:38:16.618Z,16.80
2018-07-14T02:40:46.798Z,16.80
2018-07-14T02:43:17.023Z,16.80
2018-07-14T02:45:47.479Z,16.80
2018-07-14T02:48:17.806Z,16.80
2018-07-14T02:50:48.023Z,16.80
2018-07-14T02:53:18.339Z,16.80
2018-07-14T02:55:48.878Z,16.70
2018-07-14T02:58:19.484Z,16.70
2018-07-14T03:00:49.894Z,16.70
2018-07-14T03:03:20.637Z,16.70
2018-07-14T03:05:51.159Z,16.70
2018-07-14T03:08:21.450Z,16.70
2018-07-14T03:10:51.905Z,16.70
2018-07-14T03:13:22.227Z,16.70
2018-07-14T03:15:52.487Z,16.70
2018-07-14T03:18:22.679Z,16.70
2018-07-14T03:20:52.891Z,16.70
2018-07-14T03:23:27.279Z,16.70
2018-07-14T03:25:57.753Z,16.70
2018-07-14T03:28:28.051Z,16.70
2018-07-14T03:30:59.517Z,16.80
2018-07-14T03:33:29.737Z,16.80
2018-07-14T03:36:00.103Z,16.80
2018-07-14T03:38:30.374Z,16.80
2018-07-14T03:41:00.661Z,16.90
2018-07-14T03:43:31.004Z,16.90
2018-07-14T03:46:01.286Z,16.90
2018-07-14T03:48:31.526Z,16.90
2018-07-14T03:51:01.829Z,17.00
2018-07-14T03:53:32.103Z,17.00
2018-07-14T03:56:02.539Z,17.00
2018-07-14T03:58:32.803Z,17.00
2018-07-14T04:01:03.100Z,17.00
2018-07-14T04:03:34.459Z,17.00
2018-07-14T04:06:06.239Z,17.00
2018-07-14T04:08:36.867Z,17.10
2018-07-14T04:11:07.167Z,17.00
2018-07-14T04:16:07.770Z,16.80
2018-07-14T04:18:38.134Z,16.80
2018-07-14T04:23:38.282Z,16.60
2018-07-14T04:26:08.504Z,16.60
2018-07-14T04:28:39.223Z,16.60
2018-07-14T04:33:39.568Z,16.70
2018-07-14T04:36:09.786Z,16.70
2018-07-14T04:38:40.147Z,16.80
2018-07-14T04:41:10.350Z,16.80
2018-07-14T04:43:40.850Z,16.90
2018-07-14T04:46:11.069Z,16.90
2018-07-14T04:48:41.507Z,16.90
2018-07-14T04:51:12.320Z,16.90
2018-07-14T04:53:42.803Z,17.00
2018-07-14T04:56:13.002Z,17.10
2018-07-14T04:58:43.367Z,17.10
2018-07-14T05:01:13.569Z,17.20
2018-07-14T05:03:44.110Z,17.20
2018-07-14T05:06:14.298Z,17.30
2018-07-14T05:08:44.570Z,17.50
2018-07-14T05:11:14.776Z,17.50
2018-07-14T05:13:45.015Z,17.70
2018-07-14T05:16:15.213Z,17.90
2018-07-14T05:18:45.434Z,18.10
2018-07-14T05:21:15.668Z,18.20
2018-07-14T05:23:46.062Z,18.30
2018-07-14T05:26:16.266Z,18.40
2018-07-14T05:31:16.447Z,18.60
2018-07-14T05:33:46.694Z,18.70
2018-07-14T05:36:16.951Z,18.80
2018-07-14T05:38:47.197Z,18.80
2018-07-14T05:41:17.436Z,18.90
2018-07-14T05:43:47.751Z,18.90
2018-07-14T05:46:18.060Z,19.00
2018-07-14T05:48:48.418Z,19.00
2018-07-14T05:51:18.728Z,19.10
2018-07-14T05:53:49.001Z,19.20
2018-07-14T05:56:19.326Z,19.00
2018-07-14T05:58:49.721Z,19.10
2018-07-14T06:01:20.174Z,19.20
2018-07-14T06:03:50.662Z,19.30
2018-07-14T06:06:21.139Z,19.50
2018-07-14T06:08:51.739Z,19.60
2018-07-14T06:11:22.026Z,19.80
2018-07-14T06:13:52.239Z,20.00
2018-07-14T06:16:22.627Z,20.20
2018-07-14T06:18:52.867Z,20.30
2018-07-14T06:21:23.192Z,20.50
2018-07-14T06:23:53.484Z,20.60
2018-07-14T06:26:23.737Z,20.80
2018-07-14T06:28:54.152Z,20.90
2018-07-14T06:31:24.419Z,21.00
2018-07-14T06:33:54.626Z,21.10
2018-07-14T06:36:24.838Z,21.20
2018-07-14T06:38:55.060Z,21.30
2018-07-14T06:41:25.343Z,21.50
2018-07-14T06:43:56.083Z,21.70
2018-07-14T06:46:26.886Z,21.90
2018-07-14T06:48:57.139Z,22.20
2018-07-14T06:51:28.305Z,22.40
2018-07-14T06:53:58.652Z,22.70
2018-07-14T06:56:29.496Z,22.80
2018-07-14T06:59:00.559Z,23.10
2018-07-14T07:01:30.939Z,23.20
2018-07-14T07:04:03.351Z,23.30
2018-07-14T07:06:35.656Z,23.40
2018-07-14T07:09:07.345Z,23.50
2018-07-14T07:11:37.707Z,23.60
2018-07-14T07:14:13.311Z,23.70
2018-07-14T07:16:45.654Z,23.90
2018-07-14T07:19:16.043Z,24.00
2018-07-14T07:21:46.591Z,23.90
2018-07-14T07:24:16.936Z,23.90
2018-07-14T07:26:47.876Z,23.90
2018-07-14T07:29:20.569Z,23.90
2018-07-14T07:31:53.166Z,23.90
2018-07-14T07:34:24.035Z,23.90
2018-07-14T07:36:56.470Z,24.00
2018-07-14T07:39:27.150Z,24.20
2018-07-14T07:41:57.938Z,24.30
2018-07-14T07:44:28.217Z,24.60
2018-07-14T07:46:58.808Z,24.80
2018-07-14T07:49:29.059Z,25.10
2018-07-14T07:52:04.091Z,25.20
2018-07-14T07:54:34.855Z,25.40
2018-07-14T07:57:06.280Z,25.60
2018-07-14T07:59:37.928Z,25.70
2018-07-14T08:02:09.018Z,25.80
2018-07-14T08:04:40.409Z,26.00
2018-07-14T08:07:11.653Z,26.20
2018-07-14T08:10:48.289Z,26.30
2018-07-14T08:13:19.430Z,26.50
2018-07-14T08:15:49.953Z,26.70
2018-07-14T08:18:28.392Z,26.70
2018-07-14T08:20:59.353Z,26.90
2018-07-14T08:23:31.348Z,27.00
2018-07-14T08:26:01.587Z,27.20
2018-07-14T08:28:33.017Z,27.50
2018-07-14T08:31:09.418Z,27.70
2018-07-14T08:33:40.509Z,27.80
2018-07-14T08:36:10.942Z,28.00
2018-07-14T08:38:41.235Z,27.90
2018-07-14T08:41:11.698Z,27.90
2018-07-14T08:43:42.884Z,27.90
2018-07-14T08:46:13.174Z,27.90
2018-07-14T08:48:46.125Z,27.90
2018-07-14T08:51:17.007Z,28.00
2018-07-14T08:53:47.247Z,28.20
2018-07-14T08:56:17.683Z,28.60
2018-07-14T08:58:48.246Z,28.70
2018-07-14T09:03:50.538Z,28.80
2018-07-14T09:06:21.305Z,28.90
2018-07-14T09:08:51.646Z,29.00
2018-07-14T09:11:21.922Z,29.20
2018-07-14T09:13:52.686Z,29.20
2018-07-14T09:16:23.299Z,29.10
2018-07-14T09:18:53.557Z,29.00
2018-07-14T09:21:24.428Z,29.10
2018-07-14T09:23:54.670Z,28.90
2018-07-14T09:26:24.928Z,28.70
2018-07-14T09:28:55.453Z,28.30
2018-07-14T09:31:25.835Z,28.10
2018-07-14T09:33:56.319Z,27.50
2018-07-14T09:36:26.538Z,27.20
2018-07-14T09:38:56.832Z,26.70
2018-07-14T09:41:27.121Z,25.90
2018-07-14T09:43:57.414Z,25.00
2018-07-14T09:46:27.663Z,24.10
2018-07-14T09:48:57.940Z,23.70
2018-07-14T09:51:28.174Z,23.40
2018-07-14T09:53:59.277Z,23.30
2018-07-14T09:56:29.538Z,23.20
2018-07-14T09:58:59.859Z,23.10
2018-07-14T10:01:30.147Z,23.10
2018-07-14T10:04:00.391Z,23.00
2018-07-14T10:06:30.918Z,23.00
2018-07-14T10:09:01.403Z,22.90
2018-07-14T10:11:31.626Z,22.80
2018-07-14T10:14:01.847Z,22.70
2018-07-14T10:16:32.127Z,22.60
2018-07-14T10:19:02.551Z,22.50
2018-07-14T10:21:32.812Z,22.70
2018-07-14T10:24:03.090Z,22.90
2018-07-14T10:26:33.289Z,23.30
2018-07-14T10:29:03.637Z,23.60
2018-07-14T10:31:33.841Z,23.90
2018-07-14T10:34:04.228Z,24.20
2018-07-14T10:36:34.851Z,24.50
2018-07-14T10:39:06.207Z,24.70
2018-07-14T10:41:36.703Z,24.80
2018-07-14T10:44:08.949Z,24.90
2018-07-14T10:46:40.525Z,25.00
2018-07-14T10:49:10.808Z,25.10
2018-07-14T10:51:41.064Z,25.20
2018-07-14T10:54:12.312Z,25.40
2018-07-14T10:56:42.635Z,25.80
2018-07-14T10:59:13.018Z,26.30
2018-07-14T11:01:43.778Z,26.90
2018-07-14T11:04:14.246Z,27.40
2018-07-14T11:06:44.687Z,27.90
2018-07-14T11:09:17.050Z,27.90
2018-07-14T11:11:50.276Z,27.70
2018-07-14T11:14:21.218Z,27.50
2018-07-14T11:16:51.595Z,27.50
2018-07-14T11:19:21.875Z,27.50
2018-07-14T11:21:52.113Z,27.50
2018-07-14T11:24:22.450Z,27.40
2018-07-14T11:26:52.707Z,27.10
2018-07-14T11:29:23.016Z,27.20
2018-07-14T11:31:53.270Z,27.20
2018-07-14T11:34:30.272Z,26.90
2018-07-14T11:37:03.640Z,27.30
2018-07-14T11:39:35.647Z,28.00
2018-07-14T11:42:06.374Z,28.70
2018-07-14T11:44:36.769Z,29.10
2018-07-14T11:47:07.379Z,29.50
2018-07-14T11:49:37.748Z,29.70
2018-07-14T11:52:08.255Z,30.00
2018-07-14T11:54:38.530Z,30.10
2018-07-14T11:57:10.428Z,30.30
2018-07-14T11:59:42.054Z,30.70
2018-07-14T12:02:12.551Z,30.70
2018-07-14T12:07:12.769Z,30.60
2018-07-14T12:09:43.218Z,30.80
2018-07-14T12:12:14.688Z,31.20
2018-07-14T12:14:45.512Z,31.60
2018-07-14T12:17:18.111Z,31.60
2018-07-14T12:19:49.018Z,31.40
2018-07-14T12:22:19.933Z,31.40
2018-07-14T12:24:50.645Z,32.10
2018-07-14T12:27:22.201Z,32.80
2018-07-14T12:29:55.486Z,33.50
2018-07-14T12:35:11.364Z,34.60
2018-07-14T12:37:41.627Z,35.00
2018-07-14T12:40:11.991Z,35.30
2018-07-14T12:42:43.775Z,35.50
2018-07-14T12:45:39.915Z,35.50
2018-07-14T12:48:23.953Z,35.90
2018-07-14T12:51:06.930Z,36.20
2018-07-14T12:53:47.241Z,36.60
2018-07-14T12:56:32.518Z,36.70
2018-07-14T12:59:07.487Z,36.60
2018-07-14T13:01:45.381Z,36.30
2018-07-14T13:04:23.875Z,36.20
2018-07-14T13:06:57.818Z,36.30
2018-07-14T13:09:43.815Z,36.20
2018-07-14T13:12:18.989Z,36.40
2018-07-14T13:15:09.049Z,36.60
2018-07-14T13:17:55.103Z,37.20
2018-07-14T13:20:37.873Z,37.70
2018-07-14T13:28:03.586Z,38.60
2018-07-14T13:30:34.266Z,39.30
2018-07-14T13:33:04.854Z,39.40
2018-07-14T13:35:35.845Z,38.70
2018-07-14T13:38:22.273Z,38.50
2018-07-14T13:40:52.563Z,38.00
2018-07-14T13:43:23.058Z,37.80
2018-07-14T13:45:54.406Z,37.90
2018-07-14T13:48:31.337Z,37.30
2018-07-14T13:51:01.618Z,36.50
2018-07-14T13:53:42.183Z,35.60
2018-07-14T13:56:12.849Z,34.90
2018-07-14T13:58:43.067Z,34.80
2018-07-14T14:01:13.451Z,34.90
2018-07-14T14:03:43.735Z,34.90
2018-07-14T14:06:14.635Z,35.40
2018-07-14T14:08:44.930Z,35.60
2018-07-14T14:11:15.722Z,35.50
2018-07-14T14:13:46.027Z,35.80
2018-07-14T14:16:23.488Z,36.50
2018-07-14T14:18:54.458Z,36.90
2018-07-14T14:21:25.267Z,37.20
2018-07-14T14:23:55.802Z,37.70
2018-07-14T14:26:27.660Z,38.20
2018-07-14T14:28:58.050Z,38.70
2018-07-14T14:31:29.044Z,39.10
2018-07-14T14:33:59.477Z,39.40
2018-07-14T14:36:31.012Z,39.20
2018-07-14T14:39:01.834Z,38.10
2018-07-14T14:41:34.077Z,37.00
2018-07-14T14:44:04.850Z,36.10
2018-07-14T14:46:35.199Z,35.90
2018-07-14T14:49:05.865Z,35.80
2018-07-14T14:51:36.158Z,35.10
2018-07-14T14:54:06.550Z,35.10
2018-07-14T14:56:37.142Z,35.10
2018-07-14T14:59:08.566Z,34.70
2018-07-14T15:01:40.294Z,34.40
2018-07-14T15:04:11.126Z,34.30
2018-07-14T15:06:41.510Z,34.10
2018-07-14T15:09:11.793Z,34.00
2018-07-14T15:11:43.103Z,34.30
2018-07-14T15:14:13.325Z,34.40
2018-07-14T15:16:43.826Z,34.70
2018-07-14T15:19:14.059Z,35.00
2018-07-14T15:21:44.480Z,35.40
2018-07-14T15:24:14.969Z,35.60
2018-07-14T15:26:45.648Z,35.90
2018-07-14T15:29:16.033Z,36.20
2018-07-14T15:31:46.654Z,36.10
2018-07-14T15:34:17.403Z,36.00
2018-07-14T15:36:48.389Z,35.90
2018-07-14T15:39:19.618Z,36.00
2018-07-14T15:41:50.209Z,36.00
2018-07-14T15:44:21.597Z,36.20
2018-07-14T15:46:54.189Z,36.40
2018-07-14T15:49:24.683Z,36.10
2018-07-14T15:51:57.594Z,36.30
2018-07-14T15:54:29.683Z,36.20
2018-07-14T15:57:00.377Z,36.20
2018-07-14T15:59:31.779Z,36.20
2018-07-14T16:02:06.632Z,35.90
2018-07-14T16:04:38.307Z,35.70
2018-07-14T16:07:09.108Z,35.40
2018-07-14T16:09:39.314Z,35.10
2018-07-14T16:12:09.782Z,34.70
2018-07-14T16:14:40.463Z,34.50
2018-07-14T16:17:11.946Z,34.30
2018-07-14T16:19:42.806Z,34.20
2018-07-14T16:22:13.612Z,34.30
2018-07-14T16:24:43.977Z,34.10
2018-07-14T16:27:14.483Z,33.90
2018-07-14T16:29:44.738Z,33.70
2018-07-14T16:32:15.136Z,33.40
2018-07-14T16:34:46.372Z,33.00
2018-07-14T16:37:17.093Z,32.70
2018-07-14T16:39:47.279Z,32.40
2018-07-14T16:42:17.532Z,32.20
2018-07-14T16:44:47.994Z,32.10
2018-07-14T16:47:18.751Z,31.90
2018-07-14T16:49:49.294Z,31.70
2018-07-14T16:52:25.397Z,31.60
2018-07-14T16:55:02.294Z,31.30
2018-07-14T16:57:32.610Z,31.10
2018-07-14T17:00:03.021Z,31.10
2018-07-14T17:02:33.341Z,31.20
2018-07-14T17:05:03.627Z,31.00
2018-07-14T17:07:33.935Z,30.90
2018-07-14T17:10:04.232Z,30.60
2018-07-14T17:12:34.883Z,30.20
2018-07-14T17:15:05.586Z,29.80
2018-07-14T17:17:36.467Z,29.40
2018-07-14T17:20:07.799Z,29.00
2018-07-14T17:22:41.496Z,28.60
2018-07-14T17:25:12.875Z,28.20
2018-07-14T17:27:43.559Z,27.90
2018-07-14T17:30:15.009Z,27.50
2018-07-14T17:32:45.324Z,27.10
2018-07-14T17:35:16.273Z,26.90
2018-07-14T17:37:52.147Z,26.60
2018-07-14T17:40:25.264Z,26.30
2018-07-14T17:42:55.936Z,26.00
2018-07-14T17:45:26.406Z,25.90
2018-07-14T17:47:57.826Z,25.80
2018-07-14T17:50:28.103Z,25.70
2018-07-14T17:52:58.466Z,25.60
2018-07-14T17:55:28.753Z,25.50
2018-07-14T17:57:59.158Z,25.40
2018-07-14T18:00:29.398Z,25.30
2018-07-14T18:02:59.718Z,25.30
2018-07-14T18:05:30.102Z,25.30
2018-07-14T18:08:00.407Z,25.20
2018-07-14T18:10:30.730Z,25.00
2018-07-14T18:13:01.019Z,24.90
2018-07-14T18:15:31.284Z,24.80
2018-07-14T18:18:01.629Z,24.70
2018-07-14T18:20:31.940Z,24.70
2018-07-14T18:23:02.194Z,24.50
2018-07-14T18:25:32.579Z,24.30
2018-07-14T18:28:02.826Z,24.20
2018-07-14T18:30:33.380Z,24.10
2018-07-14T18:33:03.692Z,23.90
2018-07-14T18:35:33.934Z,23.80
2018-07-14T18:38:04.140Z,23.70
2018-07-14T18:40:34.916Z,23.50
2018-07-14T18:43:05.444Z,23.50
2018-07-14T18:45:35.819Z,23.40
2018-07-14T18:48:06.463Z,23.20
2018-07-14T18:50:36.902Z,23.10
2018-07-14T18:53:07.829Z,22.90
2018-07-14T18:55:38.246Z,22.90
2018-07-14T18:58:08.570Z,22.80
2018-07-14T19:00:39.054Z,22.50
2018-07-14T19:03:09.551Z,22.50
2018-07-14T19:05:39.923Z,22.50
2018-07-14T19:08:10.374Z,22.40
2018-07-14T19:10:40.724Z,22.50
2018-07-14T19:13:11.503Z,22.40
2018-07-14T19:15:42.237Z,22.40
2018-07-14T19:18:12.501Z,22.20
2018-07-14T19:20:42.999Z,22.20
2018-07-14T19:23:13.271Z,22.10
2018-07-14T19:25:43.674Z,22.10
2018-07-14T19:28:13.995Z,22.00
2018-07-14T19:30:45.688Z,21.90
2018-07-14T19:33:17.089Z,21.80
2018-07-14T19:35:47.891Z,21.60
2018-07-14T19:38:18.748Z,21.60
2018-07-14T19:40:50.440Z,21.50
2018-07-14T19:43:21.340Z,21.40
2018-07-14T19:45:53.258Z,21.40
2018-07-14T19:48:25.913Z,21.30
2018-07-14T19:50:56.626Z,21.30
2018-07-14T19:53:27.271Z,21.20
2018-07-14T19:56:00.691Z,21.10
2018-07-14T19:58:31.256Z,21.00
2018-07-14T20:01:01.939Z,20.90
2018-07-14T20:06:14.347Z,20.70
2018-07-14T20:08:44.607Z,20.60
2018-07-14T20:11:14.906Z,20.60
2018-07-14T20:13:45.170Z,20.50
2018-07-14T20:16:15.570Z,20.30
2018-07-14T20:18:45.826Z,20.30
2018-07-14T20:21:16.070Z,20.20
2018-07-14T20:23:46.394Z,20.10
2018-07-14T20:26:16.757Z,20.10
2018-07-14T20:28:47.035Z,20.00
2018-07-14T20:31:23.263Z,19.90
2018-07-14T20:33:53.594Z,19.90
2018-07-14T20:36:23.822Z,19.80
2018-07-14T20:38:54.153Z,19.90
2018-07-14T20:41:24.569Z,19.80
2018-07-14T20:43:54.808Z,19.80
2018-07-14T20:46:25.128Z,19.70
2018-07-14T20:48:55.315Z,19.80
2018-07-14T20:53:55.500Z,19.60
2018-07-14T20:56:25.750Z,19.50
2018-07-14T20:58:56.098Z,19.50
2018-07-14T21:01:26.402Z,19.50
2018-07-14T21:03:56.606Z,19.50
2018-07-14T21:06:26.903Z,19.40
2018-07-14T21:08:57.283Z,19.30
2018-07-14T21:11:27.556Z,19.20
2018-07-14T21:13:57.832Z,19.10
2018-07-14T21:16:28.112Z,19.10
2018-07-14T21:18:58.282Z,19.10
2018-07-14T21:21:28.677Z,19.00
2018-07-14T21:23:58.920Z,19.00
2018-07-14T21:26:29.183Z,19.00
2018-07-14T21:28:59.514Z,18.90
2018-07-14T21:31:29.891Z,18.80
2018-07-14T21:34:00.404Z,18.80
2018-07-14T21:36:30.676Z,18.80
2018-07-14T21:39:00.891Z,18.80
2018-07-14T21:41:31.181Z,18.70
2018-07-14T21:44:01.571Z,18.70
2018-07-14T21:46:31.838Z,18.70
2018-07-14T21:49:02.079Z,18.60
2018-07-14T21:51:32.567Z,18.50
2018-07-14T21:54:03.184Z,18.50
2018-07-14T21:56:34.079Z,18.50
2018-07-14T21:59:05.150Z,18.60
2018-07-14T22:01:41.455Z,18.50
2018-07-14T22:04:14.011Z,18.50
2018-07-14T22:07:27.707Z,18.50
2018-07-14T22:10:06.735Z,18.50
2018-07-14T22:12:47.905Z,18.60
2018-07-14T22:15:20.994Z,18.50
2018-07-14T22:17:56.450Z,18.40
2018-07-14T22:20:41.114Z,18.30
2018-07-14T22:23:12.846Z,18.20
2018-07-14T22:25:52.071Z,18.20
2018-07-14T22:28:25.739Z,18.10
2018-07-14T22:30:57.639Z,18.10
2018-07-14T22:33:36.868Z,18.00
2018-07-14T22:36:07.802Z,18.10
2018-07-14T22:38:39.048Z,17.90
2018-07-14T22:41:10.082Z,17.90
2018-07-14T22:43:40.995Z,17.80
2018-07-14T22:46:12.017Z,17.70
2018-07-14T22:48:43.528Z,17.60
2018-07-14T22:51:14.440Z,17.60
2018-07-14T22:53:45.526Z,17.60
2018-07-14T22:56:18.542Z,17.70
2018-07-14T22:58:50.133Z,17.80
2018-07-14T23:01:21.315Z,17.80
2018-07-14T23:03:53.585Z,17.90
2018-07-14T23:06:24.380Z,17.80
2018-07-14T23:08:56.968Z,17.70
2018-07-14T23:11:28.556Z,17.60
2018-07-14T23:13:59.910Z,17.70
2018-07-14T23:16:30.550Z,17.70
2018-07-14T23:19:00.811Z,17.70
2018-07-14T23:21:31.140Z,17.60
2018-07-14T23:24:01.435Z,17.60
2018-07-14T23:26:31.646Z,17.50
2018-07-14T23:29:01.999Z,17.40
2018-07-14T23:31:32.546Z,17.40
2018-07-14T23:34:02.759Z,17.50
2018-07-14T23:36:33.123Z,17.40
2018-07-14T23:39:04.843Z,17.40
2018-07-14T23:41:35.496Z,17.30
2018-07-14T23:44:06.119Z,17.20
2018-07-14T23:46:36.602Z,17.10
2018-07-14T23:49:07.149Z,17.10
2018-07-14T23:51:37.584Z,17.00
2018-07-14T23:54:07.859Z,17.10
2018-07-14T23:56:38.126Z,17.10
2018-07-14T23:59:08.300Z,17.10
